sensor_id;sensor_type;location;lat;lon;timestamp;P1;durP1;ratioP1;P2;durP2;ratioP2
793;SDS011;380;48.738;9.214;2024-03-25T00:02:03;2.95;;;1.33;;
793;SDS011;380;48.738;9.214;2024-03-25T00:04:35;2.80;;;1.60;;
793;SDS011;380;48.738;9.214;2024-03-25T00:07:01;5.80;;;2.00;;
793;SDS011;380;48.738;9.214;2024-03-25T00:09:29;6.53;;;2.45;;
793;SDS011;380;48.738;9.214;2024-03-25T00:11:55;4.68;;;2.15;;
793;SDS011;380;48.738;9.214;2024-03-25T00:14:25;2.67;;;1.85;;
793;SDS011;380;48.738;9.214;2024-03-25T00:17:01;2.85;;;1.30;;
793;SDS011;380;48.738;9.214;2024-03-25T00:19:27;3.90;;;2.05;;
793;SDS011;380;48.738;9.214;2024-03-25T00:21:59;2.90;;;1.60;;
793;SDS011;380;48.738;9.214;2024-03-25T00:24:27;5.00;;;1.95;;
793;SDS011;380;48.738;9.214;2024-03-25T00:26:54;2.20;;;1.38;;
793;SDS011;380;48.738;9.214;2024-03-25T00:29:20;3.97;;;1.88;;
793;SDS011;380;48.738;9.214;2024-03-25T00:31:46;9.32;;;1.90;;
793;SDS011;380;48.738;9.214;2024-03-25T00:34:12;4.78;;;1.80;;
793;SDS011;380;48.738;9.214;2024-03-25T00:36:41;4.32;;;1.85;;
793;SDS011;380;48.738;9.214;2024-03-25T00:39:10;3.03;;;2.13;;
793;SDS011;380;48.738;9.214;2024-03-25T00:41:45;2.65;;;1.38;;
793;SDS011;380;48.738;9.214;2024-03-25T00:44:11;4.05;;;2.05;;
793;SDS011;380;48.738;9.214;2024-03-25T00:46:37;4.93;;;2.35;;
793;SDS011;380;48.738;9.214;2024-03-25T00:49:03;9.77;;;2.20;;
793;SDS011;380;48.738;9.214;2024-03-25T00:51:29;6.35;;;1.88;;
793;SDS011;380;48.738;9.214;2024-03-25T00:53:55;2.72;;;1.45;;
793;SDS011;380;48.738;9.214;2024-03-25T00:56:24;2.80;;;1.75;;
793;SDS011;380;48.738;9.214;2024-03-25T00:58:50;3.90;;;1.98;;
793;SDS011;380;48.738;9.214;2024-03-25T01:01:16;5.78;;;1.92;;
793;SDS011;380;48.738;9.214;2024-03-25T01:03:41;7.22;;;1.92;;
793;SDS011;380;48.738;9.214;2024-03-25T01:06:07;4.18;;;2.13;;
793;SDS011;380;48.738;9.214;2024-03-25T01:08:33;4.95;;;2.50;;
793;SDS011;380;48.738;9.214;2024-03-25T01:10:59;2.85;;;1.77;;
793;SDS011;380;48.738;9.214;2024-03-25T01:13:25;3.92;;;2.17;;
793;SDS011;380;48.738;9.214;2024-03-25T01:15:51;4.85;;;2.08;;
793;SDS011;380;48.738;9.214;2024-03-25T01:18:17;7.40;;;2.40;;
793;SDS011;380;48.738;9.214;2024-03-25T01:20:43;3.05;;;1.83;;
793;SDS011;380;48.738;9.214;2024-03-25T01:23:09;4.80;;;2.25;;
793;SDS011;380;48.738;9.214;2024-03-25T01:25:35;3.35;;;2.03;;
793;SDS011;380;48.738;9.214;2024-03-25T01:28:01;3.92;;;2.42;;
793;SDS011;380;48.738;9.214;2024-03-25T01:30:27;6.32;;;2.10;;
793;SDS011;380;48.738;9.214;2024-03-25T01:32:54;2.88;;;1.77;;
793;SDS011;380;48.738;9.214;2024-03-25T01:35:20;2.85;;;1.70;;
793;SDS011;380;48.738;9.214;2024-03-25T01:37:46;3.85;;;1.98;;
793;SDS011;380;48.738;9.214;2024-03-25T01:40:12;4.78;;;2.15;;
793;SDS011;380;48.738;9.214;2024-03-25T01:42:39;6.45;;;2.25;;
793;SDS011;380;48.738;9.214;2024-03-25T01:45:06;2.30;;;1.50;;
793;SDS011;380;48.738;9.214;2024-03-25T01:47:35;4.00;;;2.20;;
793;SDS011;380;48.738;9.214;2024-03-25T01:50:01;4.03;;;2.13;;
793;SDS011;380;48.738;9.214;2024-03-25T01:52:28;12.38;;;2.83;;
793;SDS011;380;48.738;9.214;2024-03-25T01:54:55;5.25;;;2.58;;
793;SDS011;380;48.738;9.214;2024-03-25T01:57:21;4.55;;;2.05;;
793;SDS011;380;48.738;9.214;2024-03-25T01:59:47;3.72;;;1.95;;
793;SDS011;380;48.738;9.214;2024-03-25T02:02:13;5.47;;;2.55;;
793;SDS011;380;48.738;9.214;2024-03-25T02:04:40;6.28;;;1.90;;
793;SDS011;380;48.738;9.214;2024-03-25T02:07:08;9.50;;;2.15;;
793;SDS011;380;48.738;9.214;2024-03-25T02:12:02;5.32;;;2.13;;
793;SDS011;380;48.738;9.214;2024-03-25T02:14:29;4.47;;;1.75;;
793;SDS011;380;48.738;9.214;2024-03-25T02:16:55;4.25;;;2.22;;
793;SDS011;380;48.738;9.214;2024-03-25T02:19:21;3.25;;;2.05;;
793;SDS011;380;48.738;9.214;2024-03-25T02:21:48;3.58;;;2.28;;
793;SDS011;380;48.738;9.214;2024-03-25T02:24:13;4.35;;;2.67;;
793;SDS011;380;48.738;9.214;2024-03-25T02:26:41;4.07;;;2.25;;
793;SDS011;380;48.738;9.214;2024-03-25T02:29:09;3.88;;;2.00;;
793;SDS011;380;48.738;9.214;2024-03-25T02:31:35;3.05;;;2.00;;
793;SDS011;380;48.738;9.214;2024-03-25T02:34:01;5.43;;;1.75;;
793;SDS011;380;48.738;9.214;2024-03-25T02:36:27;5.88;;;2.35;;
793;SDS011;380;48.738;9.214;2024-03-25T02:38:53;3.83;;;2.38;;
793;SDS011;380;48.738;9.214;2024-03-25T02:41:19;3.10;;;2.00;;
793;SDS011;380;48.738;9.214;2024-03-25T02:43:47;8.13;;;1.95;;
793;SDS011;380;48.738;9.214;2024-03-25T02:46:13;5.40;;;2.22;;
793;SDS011;380;48.738;9.214;2024-03-25T02:48:39;2.80;;;1.92;;
793;SDS011;380;48.738;9.214;2024-03-25T02:51:05;3.10;;;2.17;;
793;SDS011;380;48.738;9.214;2024-03-25T02:53:31;3.95;;;2.08;;
793;SDS011;380;48.738;9.214;2024-03-25T02:55:57;4.63;;;2.70;;
793;SDS011;380;48.738;9.214;2024-03-25T02:58:23;4.30;;;2.33;;
793;SDS011;380;48.738;9.214;2024-03-25T03:00:48;9.02;;;2.30;;
793;SDS011;380;48.738;9.214;2024-03-25T03:03:14;5.00;;;2.92;;
793;SDS011;380;48.738;9.214;2024-03-25T03:05:40;4.93;;;2.00;;
793;SDS011;380;48.738;9.214;2024-03-25T03:08:06;5.68;;;2.42;;
793;SDS011;380;48.738;9.214;2024-03-25T03:10:32;6.82;;;2.17;;
793;SDS011;380;48.738;9.214;2024-03-25T03:12:58;3.50;;;2.25;;
793;SDS011;380;48.738;9.214;2024-03-25T03:15:24;4.95;;;2.22;;
793;SDS011;380;48.738;9.214;2024-03-25T03:17:50;5.38;;;2.55;;
793;SDS011;380;48.738;9.214;2024-03-25T03:20:16;6.15;;;2.58;;
793;SDS011;380;48.738;9.214;2024-03-25T03:22:42;8.95;;;2.47;;
793;SDS011;380;48.738;9.214;2024-03-25T03:25:08;5.07;;;2.03;;
793;SDS011;380;48.738;9.214;2024-03-25T03:27:34;5.97;;;2.50;;
793;SDS011;380;48.738;9.214;2024-03-25T03:30:00;9.45;;;2.35;;
793;SDS011;380;48.738;9.214;2024-03-25T03:32:26;3.85;;;2.28;;
793;SDS011;380;48.738;9.214;2024-03-25T03:34:52;6.05;;;2.30;;
793;SDS011;380;48.738;9.214;2024-03-25T03:37:18;4.68;;;2.63;;
793;SDS011;380;48.738;9.214;2024-03-25T03:39:44;6.18;;;2.38;;
793;SDS011;380;48.738;9.214;2024-03-25T03:42:10;6.68;;;2.58;;
793;SDS011;380;48.738;9.214;2024-03-25T03:44:36;4.30;;;2.60;;
793;SDS011;380;48.738;9.214;2024-03-25T03:47:01;4.65;;;2.47;;
793;SDS011;380;48.738;9.214;2024-03-25T03:49:27;4.22;;;2.60;;
793;SDS011;380;48.738;9.214;2024-03-25T03:51:53;5.30;;;2.78;;
793;SDS011;380;48.738;9.214;2024-03-25T03:54:19;8.40;;;3.67;;
793;SDS011;380;48.738;9.214;2024-03-25T03:56:45;3.03;;;2.25;;
793;SDS011;380;48.738;9.214;2024-03-25T03:59:11;7.75;;;2.67;;
793;SDS011;380;48.738;9.214;2024-03-25T04:01:37;3.60;;;2.05;;
793;SDS011;380;48.738;9.214;2024-03-25T04:04:03;4.90;;;2.53;;
793;SDS011;380;48.738;9.214;2024-03-25T04:06:30;3.92;;;2.75;;
793;SDS011;380;48.738;9.214;2024-03-25T04:08:56;4.65;;;2.90;;
793;SDS011;380;48.738;9.214;2024-03-25T04:11:22;4.40;;;3.00;;
793;SDS011;380;48.738;9.214;2024-03-25T04:13:48;4.72;;;2.83;;
793;SDS011;380;48.738;9.214;2024-03-25T04:16:13;4.45;;;2.78;;
793;SDS011;380;48.738;9.214;2024-03-25T04:18:39;6.80;;;2.78;;
793;SDS011;380;48.738;9.214;2024-03-25T04:21:11;11.05;;;3.28;;
793;SDS011;380;48.738;9.214;2024-03-25T04:23:37;6.47;;;3.05;;
793;SDS011;380;48.738;9.214;2024-03-25T04:26:03;4.03;;;2.40;;
793;SDS011;380;48.738;9.214;2024-03-25T04:28:31;7.28;;;3.20;;
793;SDS011;380;48.738;9.214;2024-03-25T04:30:57;4.72;;;3.03;;
793;SDS011;380;48.738;9.214;2024-03-25T04:33:23;5.57;;;2.60;;
793;SDS011;380;48.738;9.214;2024-03-25T04:35:48;3.13;;;2.25;;
793;SDS011;380;48.738;9.214;2024-03-25T04:38:16;4.40;;;2.83;;
793;SDS011;380;48.738;9.214;2024-03-25T04:40:42;5.88;;;2.70;;
793;SDS011;380;48.738;9.214;2024-03-25T04:43:09;4.68;;;3.08;;
793;SDS011;380;48.738;9.214;2024-03-25T04:45:34;4.45;;;3.35;;
793;SDS011;380;48.738;9.214;2024-03-25T04:48:00;4.57;;;3.15;;
793;SDS011;380;48.738;9.214;2024-03-25T04:50:26;5.55;;;3.50;;
793;SDS011;380;48.738;9.214;2024-03-25T04:52:53;5.57;;;2.95;;
793;SDS011;380;48.738;9.214;2024-03-25T04:55:19;4.60;;;3.28;;
793;SDS011;380;48.738;9.214;2024-03-25T04:57:45;4.03;;;3.28;;
793;SDS011;380;48.738;9.214;2024-03-25T05:00:11;5.80;;;2.42;;
793;SDS011;380;48.738;9.214;2024-03-25T05:02:37;4.00;;;2.83;;
793;SDS011;380;48.738;9.214;2024-03-25T05:05:03;8.00;;;3.22;;
793;SDS011;380;48.738;9.214;2024-03-25T05:07:30;4.95;;;2.95;;
793;SDS011;380;48.738;9.214;2024-03-25T05:09:56;5.05;;;3.53;;
793;SDS011;380;48.738;9.214;2024-03-25T05:12:22;5.05;;;3.05;;
793;SDS011;380;48.738;9.214;2024-03-25T05:14:48;4.55;;;3.33;;
793;SDS011;380;48.738;9.214;2024-03-25T05:17:14;3.88;;;2.30;;
793;SDS011;380;48.738;9.214;2024-03-25T05:19:39;5.30;;;3.05;;
793;SDS011;380;48.738;9.214;2024-03-25T05:22:05;4.05;;;2.97;;
793;SDS011;380;48.738;9.214;2024-03-25T05:24:31;6.70;;;2.65;;
793;SDS011;380;48.738;9.214;2024-03-25T05:26:57;7.47;;;3.28;;
793;SDS011;380;48.738;9.214;2024-03-25T05:29:23;4.78;;;2.53;;
793;SDS011;380;48.738;9.214;2024-03-25T05:31:56;6.00;;;2.45;;
793;SDS011;380;48.738;9.214;2024-03-25T05:34:23;8.18;;;3.13;;
793;SDS011;380;48.738;9.214;2024-03-25T05:36:49;3.70;;;2.35;;
793;SDS011;380;48.738;9.214;2024-03-25T05:39:15;4.20;;;2.67;;
793;SDS011;380;48.738;9.214;2024-03-25T05:41:41;3.75;;;2.35;;
793;SDS011;380;48.738;9.214;2024-03-25T05:44:07;5.22;;;2.55;;
793;SDS011;380;48.738;9.214;2024-03-25T05:46:33;4.18;;;3.03;;
793;SDS011;380;48.738;9.214;2024-03-25T05:49:02;3.55;;;2.45;;
793;SDS011;380;48.738;9.214;2024-03-25T05:51:29;12.30;;;4.10;;
793;SDS011;380;48.738;9.214;2024-03-25T05:53:55;4.43;;;3.22;;
793;SDS011;380;48.738;9.214;2024-03-25T05:56:21;7.60;;;3.00;;
793;SDS011;380;48.738;9.214;2024-03-25T05:58:47;4.97;;;3.35;;
793;SDS011;380;48.738;9.214;2024-03-25T06:01:13;7.93;;;3.55;;
793;SDS011;380;48.738;9.214;2024-03-25T06:03:39;3.85;;;2.47;;
793;SDS011;380;48.738;9.214;2024-03-25T06:06:05;5.53;;;3.28;;
793;SDS011;380;48.738;9.214;2024-03-25T06:08:31;6.32;;;3.45;;
793;SDS011;380;48.738;9.214;2024-03-25T06:11:00;3.50;;;2.30;;
793;SDS011;380;48.738;9.214;2024-03-25T06:13:27;4.35;;;2.70;;
793;SDS011;380;48.738;9.214;2024-03-25T06:15:53;4.32;;;2.90;;
793;SDS011;380;48.738;9.214;2024-03-25T06:18:19;3.30;;;2.50;;
793;SDS011;380;48.738;9.214;2024-03-25T06:20:45;8.25;;;3.05;;
793;SDS011;380;48.738;9.214;2024-03-25T06:23:11;7.70;;;3.58;;
793;SDS011;380;48.738;9.214;2024-03-25T06:25:47;6.53;;;2.92;;
793;SDS011;380;48.738;9.214;2024-03-25T06:28:12;7.85;;;3.17;;
793;SDS011;380;48.738;9.214;2024-03-25T06:30:38;5.47;;;2.65;;
793;SDS011;380;48.738;9.214;2024-03-25T06:33:23;7.00;;;3.03;;
793;SDS011;380;48.738;9.214;2024-03-25T06:36:07;5.90;;;3.17;;
793;SDS011;380;48.738;9.214;2024-03-25T06:38:33;4.32;;;2.78;;
793;SDS011;380;48.738;9.214;2024-03-25T06:40:59;4.78;;;2.70;;
793;SDS011;380;48.738;9.214;2024-03-25T06:43:25;10.18;;;2.92;;
793;SDS011;380;48.738;9.214;2024-03-25T06:45:51;5.25;;;2.92;;
793;SDS011;380;48.738;9.214;2024-03-25T06:48:17;5.38;;;2.47;;
793;SDS011;380;48.738;9.214;2024-03-25T06:50:52;4.18;;;2.85;;
793;SDS011;380;48.738;9.214;2024-03-25T06:53:18;4.30;;;3.00;;
793;SDS011;380;48.738;9.214;2024-03-25T06:55:50;6.55;;;2.65;;
793;SDS011;380;48.738;9.214;2024-03-25T06:58:16;7.40;;;3.03;;
793;SDS011;380;48.738;9.214;2024-03-25T07:00:43;3.47;;;2.58;;
793;SDS011;380;48.738;9.214;2024-03-25T07:03:09;5.22;;;2.90;;
793;SDS011;380;48.738;9.214;2024-03-25T07:05:35;4.80;;;2.72;;
793;SDS011;380;48.738;9.214;2024-03-25T07:08:01;4.60;;;2.63;;
793;SDS011;380;48.738;9.214;2024-03-25T07:10:27;4.13;;;2.45;;
793;SDS011;380;48.738;9.214;2024-03-25T07:12:53;5.50;;;3.17;;
793;SDS011;380;48.738;9.214;2024-03-25T07:15:19;7.00;;;2.90;;
793;SDS011;380;48.738;9.214;2024-03-25T07:17:45;5.05;;;2.35;;
793;SDS011;380;48.738;9.214;2024-03-25T07:20:11;5.22;;;3.30;;
793;SDS011;380;48.738;9.214;2024-03-25T07:22:37;7.78;;;3.08;;
793;SDS011;380;48.738;9.214;2024-03-25T07:25:03;3.92;;;2.42;;
793;SDS011;380;48.738;9.214;2024-03-25T07:27:29;4.63;;;2.95;;
793;SDS011;380;48.738;9.214;2024-03-25T07:29:55;5.43;;;2.97;;
793;SDS011;380;48.738;9.214;2024-03-25T07:32:21;4.65;;;2.75;;
793;SDS011;380;48.738;9.214;2024-03-25T07:34:47;3.72;;;2.35;;
793;SDS011;380;48.738;9.214;2024-03-25T07:37:13;4.28;;;2.53;;
793;SDS011;380;48.738;9.214;2024-03-25T07:39:39;13.75;;;4.03;;
793;SDS011;380;48.738;9.214;2024-03-25T07:42:05;7.50;;;2.90;;
793;SDS011;380;48.738;9.214;2024-03-25T07:44:31;5.55;;;2.88;;
793;SDS011;380;48.738;9.214;2024-03-25T07:46:57;3.70;;;2.92;;
793;SDS011;380;48.738;9.214;2024-03-25T07:49:23;6.93;;;2.92;;
793;SDS011;380;48.738;9.214;2024-03-25T07:51:49;3.97;;;2.45;;
793;SDS011;380;48.738;9.214;2024-03-25T07:54:15;3.90;;;2.75;;
793;SDS011;380;48.738;9.214;2024-03-25T07:56:41;3.85;;;2.70;;
793;SDS011;380;48.738;9.214;2024-03-25T07:59:07;3.65;;;2.35;;
793;SDS011;380;48.738;9.214;2024-03-25T08:01:33;6.05;;;2.92;;
793;SDS011;380;48.738;9.214;2024-03-25T08:03:59;10.10;;;2.75;;
793;SDS011;380;48.738;9.214;2024-03-25T08:06:27;6.03;;;3.08;;
793;SDS011;380;48.738;9.214;2024-03-25T08:08:53;3.63;;;2.42;;
793;SDS011;380;48.738;9.214;2024-03-25T08:11:19;4.05;;;3.30;;
793;SDS011;380;48.738;9.214;2024-03-25T08:13:45;7.00;;;2.75;;
793;SDS011;380;48.738;9.214;2024-03-25T08:16:11;6.95;;;2.83;;
793;SDS011;380;48.738;9.214;2024-03-25T08:18:37;3.63;;;2.60;;
793;SDS011;380;48.738;9.214;2024-03-25T08:21:03;5.72;;;2.08;;
793;SDS011;380;48.738;9.214;2024-03-25T08:23:29;4.68;;;2.67;;
793;SDS011;380;48.738;9.214;2024-03-25T08:25:55;3.95;;;2.28;;
793;SDS011;380;48.738;9.214;2024-03-25T08:28:21;3.45;;;1.83;;
793;SDS011;380;48.738;9.214;2024-03-25T08:30:47;2.70;;;1.75;;
793;SDS011;380;48.738;9.214;2024-03-25T08:33:13;3.90;;;2.42;;
793;SDS011;380;48.738;9.214;2024-03-25T08:35:39;3.05;;;1.70;;
793;SDS011;380;48.738;9.214;2024-03-25T08:38:05;4.13;;;2.50;;
793;SDS011;380;48.738;9.214;2024-03-25T08:40:30;2.45;;;1.85;;
793;SDS011;380;48.738;9.214;2024-03-25T08:42:56;3.92;;;1.75;;
793;SDS011;380;48.738;9.214;2024-03-25T08:45:22;2.95;;;1.90;;
793;SDS011;380;48.738;9.214;2024-03-25T08:47:48;2.72;;;1.35;;
793;SDS011;380;48.738;9.214;2024-03-25T08:50:14;3.17;;;1.95;;
793;SDS011;380;48.738;9.214;2024-03-25T08:52:40;5.32;;;1.73;;
793;SDS011;380;48.738;9.214;2024-03-25T08:55:06;3.13;;;1.55;;
793;SDS011;380;48.738;9.214;2024-03-25T08:57:32;3.17;;;1.65;;
793;SDS011;380;48.738;9.214;2024-03-25T08:59:58;3.55;;;1.48;;
793;SDS011;380;48.738;9.214;2024-03-25T09:02:24;2.58;;;1.60;;
793;SDS011;380;48.738;9.214;2024-03-25T09:04:51;4.05;;;1.42;;
793;SDS011;380;48.738;9.214;2024-03-25T09:07:17;4.45;;;2.30;;
793;SDS011;380;48.738;9.214;2024-03-25T09:09:44;2.15;;;1.10;;
793;SDS011;380;48.738;9.214;2024-03-25T09:12:28;2.22;;;1.02;;
793;SDS011;380;48.738;9.214;2024-03-25T09:14:54;4.22;;;1.77;;
793;SDS011;380;48.738;9.214;2024-03-25T09:17:20;1.77;;;0.98;;
793;SDS011;380;48.738;9.214;2024-03-25T09:19:48;1.88;;;0.82;;
793;SDS011;380;48.738;9.214;2024-03-25T09:22:14;1.40;;;0.80;;
793;SDS011;380;48.738;9.214;2024-03-25T09:24:40;4.55;;;1.27;;
793;SDS011;380;48.738;9.214;2024-03-25T09:27:06;2.92;;;1.10;;
793;SDS011;380;48.738;9.214;2024-03-25T09:29:31;1.90;;;1.02;;
793;SDS011;380;48.738;9.214;2024-03-25T09:31:57;1.77;;;0.77;;
793;SDS011;380;48.738;9.214;2024-03-25T09:34:23;2.20;;;1.02;;
793;SDS011;380;48.738;9.214;2024-03-25T09:36:49;2.05;;;0.70;;
793;SDS011;380;48.738;9.214;2024-03-25T09:39:15;1.05;;;0.60;;
793;SDS011;380;48.738;9.214;2024-03-25T09:41:42;2.08;;;0.98;;
793;SDS011;380;48.738;9.214;2024-03-25T09:44:08;1.70;;;0.60;;
793;SDS011;380;48.738;9.214;2024-03-25T09:46:35;1.98;;;1.15;;
793;SDS011;380;48.738;9.214;2024-03-25T09:49:01;2.70;;;1.00;;
793;SDS011;380;48.738;9.214;2024-03-25T09:51:30;1.42;;;0.68;;
793;SDS011;380;48.738;9.214;2024-03-25T09:53:56;1.65;;;0.60;;
793;SDS011;380;48.738;9.214;2024-03-25T09:56:22;1.23;;;0.55;;
793;SDS011;380;48.738;9.214;2024-03-25T09:58:48;3.10;;;1.52;;
793;SDS011;380;48.738;9.214;2024-03-25T10:01:14;2.90;;;1.30;;
793;SDS011;380;48.738;9.214;2024-03-25T10:03:40;5.72;;;1.50;;
793;SDS011;380;48.738;9.214;2024-03-25T10:06:06;3.05;;;1.08;;
793;SDS011;380;48.738;9.214;2024-03-25T10:08:34;2.75;;;1.17;;
793;SDS011;380;48.738;9.214;2024-03-25T10:11:00;2.10;;;1.30;;
793;SDS011;380;48.738;9.214;2024-03-25T10:13:27;1.83;;;0.95;;
793;SDS011;380;48.738;9.214;2024-03-25T10:15:54;2.67;;;1.35;;
793;SDS011;380;48.738;9.214;2024-03-25T10:18:20;3.05;;;1.08;;
793;SDS011;380;48.738;9.214;2024-03-25T10:20:50;2.13;;;1.13;;
793;SDS011;380;48.738;9.214;2024-03-25T10:23:20;4.10;;;1.30;;
793;SDS011;380;48.738;9.214;2024-03-25T10:25:47;2.03;;;1.38;;
793;SDS011;380;48.738;9.214;2024-03-25T10:28:13;1.73;;;0.90;;
793;SDS011;380;48.738;9.214;2024-03-25T10:30:40;3.78;;;1.10;;
793;SDS011;380;48.738;9.214;2024-03-25T10:33:06;6.47;;;1.88;;
793;SDS011;380;48.738;9.214;2024-03-25T10:35:33;6.50;;;2.08;;
793;SDS011;380;48.738;9.214;2024-03-25T10:38:00;2.25;;;1.23;;
793;SDS011;380;48.738;9.214;2024-03-25T10:40:28;2.85;;;1.38;;
793;SDS011;380;48.738;9.214;2024-03-25T10:43:04;2.40;;;1.15;;
793;SDS011;380;48.738;9.214;2024-03-25T10:45:43;2.78;;;1.52;;
793;SDS011;380;48.738;9.214;2024-03-25T10:50:43;3.13;;;1.35;;
793;SDS011;380;48.738;9.214;2024-03-25T10:53:10;3.20;;;1.40;;
793;SDS011;380;48.738;9.214;2024-03-25T10:55:36;2.58;;;1.42;;
793;SDS011;380;48.738;9.214;2024-03-25T10:58:03;3.25;;;1.38;;
793;SDS011;380;48.738;9.214;2024-03-25T11:00:31;2.22;;;1.23;;
793;SDS011;380;48.738;9.214;2024-03-25T11:02:58;2.55;;;1.48;;
793;SDS011;380;48.738;9.214;2024-03-25T11:05:24;3.35;;;1.70;;
793;SDS011;380;48.738;9.214;2024-03-25T11:07:51;3.70;;;1.60;;
793;SDS011;380;48.738;9.214;2024-03-25T11:10:16;3.42;;;1.80;;
793;SDS011;380;48.738;9.214;2024-03-25T11:12:43;5.05;;;1.73;;
793;SDS011;380;48.738;9.214;2024-03-25T11:15:10;2.78;;;1.38;;
793;SDS011;380;48.738;9.214;2024-03-25T11:17:36;2.60;;;1.40;;
793;SDS011;380;48.738;9.214;2024-03-25T11:20:09;3.40;;;1.98;;
793;SDS011;380;48.738;9.214;2024-03-25T11:22:35;3.72;;;1.65;;
793;SDS011;380;48.738;9.214;2024-03-25T11:25:08;2.42;;;1.48;;
793;SDS011;380;48.738;9.214;2024-03-25T11:27:36;1.80;;;1.23;;
793;SDS011;380;48.738;9.214;2024-03-25T11:30:04;3.35;;;1.45;;
793;SDS011;380;48.738;9.214;2024-03-25T11:32:40;2.72;;;1.73;;
793;SDS011;380;48.738;9.214;2024-03-25T11:35:08;2.80;;;1.33;;
793;SDS011;380;48.738;9.214;2024-03-25T11:37:39;2.92;;;1.38;;
793;SDS011;380;48.738;9.214;2024-03-25T11:40:05;3.47;;;1.35;;
793;SDS011;380;48.738;9.214;2024-03-25T11:42:32;2.63;;;1.63;;
793;SDS011;380;48.738;9.214;2024-03-25T11:44:59;3.15;;;1.70;;
793;SDS011;380;48.738;9.214;2024-03-25T11:47:25;2.63;;;1.67;;
793;SDS011;380;48.738;9.214;2024-03-25T11:49:52;3.40;;;1.98;;
793;SDS011;380;48.738;9.214;2024-03-25T11:52:18;3.08;;;1.98;;
793;SDS011;380;48.738;9.214;2024-03-25T11:54:44;4.43;;;1.73;;
793;SDS011;380;48.738;9.214;2024-03-25T11:57:10;3.25;;;1.77;;
793;SDS011;380;48.738;9.214;2024-03-25T11:59:35;4.03;;;1.60;;
793;SDS011;380;48.738;9.214;2024-03-25T12:02:05;3.50;;;1.83;;
793;SDS011;380;48.738;9.214;2024-03-25T12:04:31;4.03;;;1.88;;
793;SDS011;380;48.738;9.214;2024-03-25T12:06:57;2.13;;;1.30;;
793;SDS011;380;48.738;9.214;2024-03-25T12:09:24;6.80;;;2.10;;
793;SDS011;380;48.738;9.214;2024-03-25T12:12:09;3.80;;;1.52;;
793;SDS011;380;48.738;9.214;2024-03-25T12:14:35;2.50;;;1.55;;
793;SDS011;380;48.738;9.214;2024-03-25T12:17:01;5.22;;;1.63;;
793;SDS011;380;48.738;9.214;2024-03-25T12:19:27;2.28;;;1.50;;
793;SDS011;380;48.738;9.214;2024-03-25T12:22:01;2.35;;;1.20;;
793;SDS011;380;48.738;9.214;2024-03-25T12:24:28;3.33;;;1.40;;
793;SDS011;380;48.738;9.214;2024-03-25T12:26:54;3.25;;;1.35;;
793;SDS011;380;48.738;9.214;2024-03-25T12:29:20;2.28;;;1.42;;
793;SDS011;380;48.738;9.214;2024-03-25T12:31:56;3.60;;;2.05;;
793;SDS011;380;48.738;9.214;2024-03-25T12:34:22;2.80;;;1.70;;
793;SDS011;380;48.738;9.214;2024-03-25T12:36:48;2.72;;;1.13;;
793;SDS011;380;48.738;9.214;2024-03-25T12:39:17;2.08;;;1.02;;
793;SDS011;380;48.738;9.214;2024-03-25T12:41:46;2.55;;;1.08;;
793;SDS011;380;48.738;9.214;2024-03-25T12:44:12;3.08;;;1.63;;
793;SDS011;380;48.738;9.214;2024-03-25T12:46:39;4.80;;;1.25;;
793;SDS011;380;48.738;9.214;2024-03-25T12:49:05;3.78;;;1.50;;
793;SDS011;380;48.738;9.214;2024-03-25T12:51:31;3.47;;;1.40;;
793;SDS011;380;48.738;9.214;2024-03-25T12:53:58;1.95;;;0.98;;
793;SDS011;380;48.738;9.214;2024-03-25T12:56:24;3.05;;;1.52;;
793;SDS011;380;48.738;9.214;2024-03-25T12:58:50;3.65;;;1.70;;
793;SDS011;380;48.738;9.214;2024-03-25T13:01:16;2.60;;;1.50;;
793;SDS011;380;48.738;9.214;2024-03-25T13:03:43;2.50;;;1.88;;
793;SDS011;380;48.738;9.214;2024-03-25T13:06:09;3.22;;;1.80;;
793;SDS011;380;48.738;9.214;2024-03-25T13:08:35;2.88;;;1.92;;
793;SDS011;380;48.738;9.214;2024-03-25T13:11:01;2.75;;;1.35;;
793;SDS011;380;48.738;9.214;2024-03-25T13:13:27;4.30;;;1.60;;
793;SDS011;380;48.738;9.214;2024-03-25T13:15:53;2.08;;;1.23;;
793;SDS011;380;48.738;9.214;2024-03-25T13:18:19;4.18;;;1.80;;
793;SDS011;380;48.738;9.214;2024-03-25T13:20:45;2.92;;;1.50;;
793;SDS011;380;48.738;9.214;2024-03-25T13:23:11;3.78;;;1.75;;
793;SDS011;380;48.738;9.214;2024-03-25T13:25:37;2.50;;;1.45;;
793;SDS011;380;48.738;9.214;2024-03-25T13:28:03;1.75;;;1.00;;
793;SDS011;380;48.738;9.214;2024-03-25T13:30:30;3.38;;;1.73;;
793;SDS011;380;48.738;9.214;2024-03-25T13:32:57;2.72;;;1.42;;
793;SDS011;380;48.738;9.214;2024-03-25T13:35:23;1.95;;;1.08;;
793;SDS011;380;48.738;9.214;2024-03-25T13:37:49;2.63;;;1.60;;
793;SDS011;380;48.738;9.214;2024-03-25T13:40:15;2.10;;;1.30;;
793;SDS011;380;48.738;9.214;2024-03-25T13:42:41;2.33;;;1.30;;
793;SDS011;380;48.738;9.214;2024-03-25T13:45:07;2.53;;;1.55;;
793;SDS011;380;48.738;9.214;2024-03-25T13:47:34;2.50;;;1.33;;
793;SDS011;380;48.738;9.214;2024-03-25T13:50:03;2.28;;;1.50;;
793;SDS011;380;48.738;9.214;2024-03-25T13:52:29;2.30;;;1.42;;
793;SDS011;380;48.738;9.214;2024-03-25T13:54:56;2.80;;;1.25;;
793;SDS011;380;48.738;9.214;2024-03-25T13:57:22;2.50;;;1.48;;
793;SDS011;380;48.738;9.214;2024-03-25T13:59:47;5.53;;;1.58;;
793;SDS011;380;48.738;9.214;2024-03-25T14:02:14;1.70;;;0.88;;
793;SDS011;380;48.738;9.214;2024-03-25T14:04:40;2.85;;;1.38;;
793;SDS011;380;48.738;9.214;2024-03-25T14:07:06;2.38;;;1.05;;
793;SDS011;380;48.738;9.214;2024-03-25T14:09:31;4.93;;;1.60;;
793;SDS011;380;48.738;9.214;2024-03-25T14:11:57;4.47;;;1.50;;
793;SDS011;380;48.738;9.214;2024-03-25T14:14:23;2.13;;;1.65;;
793;SDS011;380;48.738;9.214;2024-03-25T14:16:49;2.40;;;1.30;;
793;SDS011;380;48.738;9.214;2024-03-25T14:19:15;2.35;;;1.13;;
793;SDS011;380;48.738;9.214;2024-03-25T14:21:42;2.17;;;1.20;;
793;SDS011;380;48.738;9.214;2024-03-25T14:24:08;2.65;;;1.40;;
793;SDS011;380;48.738;9.214;2024-03-25T14:26:33;2.92;;;1.55;;
793;SDS011;380;48.738;9.214;2024-03-25T14:29:00;2.58;;;1.30;;
793;SDS011;380;48.738;9.214;2024-03-25T14:31:26;2.28;;;1.35;;
793;SDS011;380;48.738;9.214;2024-03-25T14:33:54;3.22;;;1.08;;
793;SDS011;380;48.738;9.214;2024-03-25T14:36:20;2.03;;;1.05;;
793;SDS011;380;48.738;9.214;2024-03-25T14:38:46;2.28;;;1.48;;
793;SDS011;380;48.738;9.214;2024-03-25T14:41:12;2.08;;;1.23;;
793;SDS011;380;48.738;9.214;2024-03-25T14:43:39;2.95;;;1.27;;
793;SDS011;380;48.738;9.214;2024-03-25T14:46:05;2.28;;;1.48;;
793;SDS011;380;48.738;9.214;2024-03-25T14:48:31;4.15;;;1.52;;
793;SDS011;380;48.738;9.214;2024-03-25T14:50:57;1.85;;;1.10;;
793;SDS011;380;48.738;9.214;2024-03-25T14:53:23;3.58;;;1.05;;
793;SDS011;380;48.738;9.214;2024-03-25T14:55:49;3.33;;;1.52;;
793;SDS011;380;48.738;9.214;2024-03-25T14:58:16;2.60;;;1.40;;
793;SDS011;380;48.738;9.214;2024-03-25T15:00:42;4.80;;;1.33;;
793;SDS011;380;48.738;9.214;2024-03-25T15:03:08;2.58;;;1.27;;
793;SDS011;380;48.738;9.214;2024-03-25T15:05:34;3.55;;;1.40;;
793;SDS011;380;48.738;9.214;2024-03-25T15:08:00;2.05;;;1.15;;
793;SDS011;380;48.738;9.214;2024-03-25T15:10:26;2.20;;;1.23;;
793;SDS011;380;48.738;9.214;2024-03-25T15:12:53;1.73;;;0.85;;
793;SDS011;380;48.738;9.214;2024-03-25T15:15:19;3.15;;;1.15;;
793;SDS011;380;48.738;9.214;2024-03-25T15:17:45;2.40;;;1.02;;
793;SDS011;380;48.738;9.214;2024-03-25T15:20:11;2.55;;;1.13;;
793;SDS011;380;48.738;9.214;2024-03-25T15:22:37;4.65;;;1.70;;
793;SDS011;380;48.738;9.214;2024-03-25T15:25:04;1.33;;;0.75;;
793;SDS011;380;48.738;9.214;2024-03-25T15:27:30;1.92;;;1.02;;
793;SDS011;380;48.738;9.214;2024-03-25T15:29:56;2.55;;;1.60;;
793;SDS011;380;48.738;9.214;2024-03-25T15:32:22;2.00;;;1.10;;
793;SDS011;380;48.738;9.214;2024-03-25T15:34:47;2.08;;;1.40;;
793;SDS011;380;48.738;9.214;2024-03-25T15:37:13;4.95;;;1.52;;
793;SDS011;380;48.738;9.214;2024-03-25T15:39:40;3.08;;;1.42;;
793;SDS011;380;48.738;9.214;2024-03-25T15:42:06;2.28;;;1.42;;
793;SDS011;380;48.738;9.214;2024-03-25T15:44:32;1.85;;;0.93;;
793;SDS011;380;48.738;9.214;2024-03-25T15:46:58;2.63;;;1.30;;